sensor_id;sensor_type;location;lat;lon;timestamp;pressure;altitude;pressure_sealevel;temperature;humidity
18533;BME280;9396;51.510;11.934;2022-09-09T00:02:01;99993.72;;;16.47;100.00
18533;BME280;9396;51.510;11.934;2022-09-09T00:04:31;99999.72;;;16.49;100.00
18533;BME280;9396;51.510;11.934;2022-09-09T00:07:05;99983.38;;;16.44;100.00
18533;BME280;9396;51.510;11.934;2022-09-09T00:09:38;99911.34;;;16.00;100.00
18533;BME280;9396;51.510;11.934;2022-09-09T00:12:11;99996.00;;;16.50;100.00
18533;BME280;9396;51.510;11.934;2022-09-09T00:14:45;99996.22;;;16.49;100.00
18533;BME280;9396;51.510;11.934;2022-09-09T00:17:22;100002.00;;;16.52;100.00
18533;BME280;9396;51.510;11.934;2022-09-09T00:19:55;99996.25;;;16.55;100.00
18533;BME280;9396;51.510;11.934;2022-09-09T00:22:27;99992.50;;;16.56;100.00
18533;BME280;9396;51.510;11.934;2022-09-09T00:24:59;99999.16;;;16.60;100.00
18533;BME280;9396;51.510;11.934;2022-09-09T00:27:33;99990.03;;;16.61;100.00
18533;BME280;9396;51.510;11.934;2022-09-09T00:30:14;99989.03;;;16.62;100.00
18533;BME280;9396;51.510;11.934;2022-09-09T00:32:45;99988.63;;;16.65;100.00
18533;BME280;9396;51.510;11.934;2022-09-09T00:35:17;99992.94;;;16.66;100.00
18533;BME280;9396;51.510;11.934;2022-09-09T00:37:46;99987.41;;;16.68;100.00
18533;BME280;9396;51.510;11.934;2022-09-09T00:40:22;99990.88;;;16.68;100.00
18533;BME280;9396;51.510;11.934;2022-09-09T00:43:00;99991.09;;;16.67;100.00
18533;BME280;9396;51.510;11.934;2022-09-09T00:45:52;99989.63;;;16.64;100.00
18533;BME280;9396;51.510;11.934;2022-09-09T00:48:31;99979.31;;;16.61;100.00
18533;BME280;9396;51.510;11.934;2022-09-09T00:51:06;99983.19;;;16.52;99.80
18533;BME280;9396;51.510;11.934;2022-09-09T00:53:39;99986.53;;;16.54;100.00
18533;BME280;9396;51.510;11.934;2022-09-09T00:56:13;99993.31;;;16.50;99.56
18533;BME280;9396;51.510;11.934;2022-09-09T00:58:42;99995.63;;;16.53;99.66
18533;BME280;9396;51.510;11.934;2022-09-09T01:01:10;99992.94;;;16.53;99.67
18533;BME280;9396;51.510;11.934;2022-09-09T01:03:45;99993.94;;;16.52;99.76
18533;BME280;9396;51.510;11.934;2022-09-09T01:06:16;99990.25;;;16.53;99.75
18533;BME280;9396;51.510;11.934;2022-09-09T01:09:07;99998.31;;;16.53;99.53
18533;BME280;9396;51.510;11.934;2022-09-09T01:11:43;99995.19;;;16.56;99.21
18533;BME280;9396;51.510;11.934;2022-09-09T01:14:24;99987.16;;;16.56;98.94
18533;BME280;9396;51.510;11.934;2022-09-09T01:16:59;99933.28;;;16.11;98.75
18533;BME280;9396;51.510;11.934;2022-09-09T01:19:39;99989.38;;;16.46;99.07
18533;BME280;9396;51.510;11.934;2022-09-09T01:22:15;99986.50;;;16.48;98.94
18533;BME280;9396;51.510;11.934;2022-09-09T01:25:02;99992.31;;;16.51;98.93
18533;BME280;9396;51.510;11.934;2022-09-09T01:27:36;99982.53;;;16.44;99.35
18533;BME280;9396;51.510;11.934;2022-09-09T01:30:07;99991.19;;;16.39;99.03
18533;BME280;9396;51.510;11.934;2022-09-09T01:32:39;100000.91;;;16.40;99.05
18533;BME280;9396;51.510;11.934;2022-09-09T01:35:08;99993.63;;;16.28;99.49
18533;BME280;9396;51.510;11.934;2022-09-09T01:37:37;100000.88;;;16.34;99.64
18533;BME280;9396;51.510;11.934;2022-09-09T01:40:04;99995.72;;;16.39;99.18
18533;BME280;9396;51.510;11.934;2022-09-09T01:42:31;99996.56;;;16.39;99.36
18533;BME280;9396;51.510;11.934;2022-09-09T01:44:59;99993.25;;;16.37;99.58
18533;BME280;9396;51.510;11.934;2022-09-09T01:47:26;99993.47;;;16.36;99.75
18533;BME280;9396;51.510;11.934;2022-09-09T01:49:52;99988.69;;;16.38;99.54
18533;BME280;9396;51.510;11.934;2022-09-09T01:52:19;99986.22;;;16.36;99.27
18533;BME280;9396;51.510;11.934;2022-09-09T01:54:46;99985.78;;;16.33;99.33
18533;BME280;9396;51.510;11.934;2022-09-09T01:57:17;99984.16;;;16.32;99.59
18533;BME280;9396;51.510;11.934;2022-09-09T01:59:53;99981.47;;;16.32;99.31
18533;BME280;9396;51.510;11.934;2022-09-09T02:02:30;99978.97;;;16.30;99.50
18533;BME280;9396;51.510;11.934;2022-09-09T02:05:09;99974.63;;;16.29;99.45
18533;BME280;9396;51.510;11.934;2022-09-09T02:07:40;99979.19;;;16.29;99.16
18533;BME280;9396;51.510;11.934;2022-09-09T02:10:11;99980.19;;;16.28;99.74
18533;BME280;9396;51.510;11.934;2022-09-09T02:12:42;99979.56;;;16.26;99.52
18533;BME280;9396;51.510;11.934;2022-09-09T02:15:17;99973.38;;;16.25;99.08
18533;BME280;9396;51.510;11.934;2022-09-09T02:17:49;99984.94;;;16.26;99.52
18533;BME280;9396;51.510;11.934;2022-09-09T02:20:19;99985.97;;;16.25;99.58
18533;BME280;9396;51.510;11.934;2022-09-09T02:22:49;100001.44;;;16.23;99.36
18533;BME280;9396;51.510;11.934;2022-09-09T02:25:20;99991.47;;;16.10;99.59
18533;BME280;9396;51.510;11.934;2022-09-09T02:27:50;99998.31;;;16.13;99.89
18533;BME280;9396;51.510;11.934;2022-09-09T02:30:18;99989.03;;;16.15;99.44
18533;BME280;9396;51.510;11.934;2022-09-09T02:32:45;99995.03;;;16.17;99.60
18533;BME280;9396;51.510;11.934;2022-09-09T02:35:19;99993.97;;;16.18;99.66
18533;BME280;9396;51.510;11.934;2022-09-09T02:37:46;99994.38;;;16.15;99.59
18533;BME280;9396;51.510;11.934;2022-09-09T02:40:14;99987.75;;;16.11;99.71
18533;BME280;9396;51.510;11.934;2022-09-09T02:42:43;99995.63;;;16.13;99.55
18533;BME280;9396;51.510;11.934;2022-09-09T02:45:12;99995.81;;;16.11;99.57
18533;BME280;9396;51.510;11.934;2022-09-09T02:47:44;99990.44;;;16.11;99.84
18533;BME280;9396;51.510;11.934;2022-09-09T02:50:17;99994.78;;;16.12;99.73
18533;BME280;9396;51.510;11.934;2022-09-09T02:53:01;99990.06;;;16.14;99.54
18533;BME280;9396;51.510;11.934;2022-09-09T02:55:38;99993.75;;;16.13;99.79
18533;BME280;9396;51.510;11.934;2022-09-09T02:58:09;99996.44;;;16.13;99.89
18533;BME280;9396;51.510;11.934;2022-09-09T03:00:38;99997.47;;;16.12;99.67
18533;BME280;9396;51.510;11.934;2022-09-09T03:03:06;100006.53;;;16.11;99.29
18533;BME280;9396;51.510;11.934;2022-09-09T03:05:35;99999.75;;;16.08;99.22
18533;BME280;9396;51.510;11.934;2022-09-09T03:08:02;100007.16;;;16.06;99.50
18533;BME280;9396;51.510;11.934;2022-09-09T03:10:30;100013.16;;;16.08;99.70
18533;BME280;9396;51.510;11.934;2022-09-09T03:12:57;99997.25;;;16.07;99.60
18533;BME280;9396;51.510;11.934;2022-09-09T03:15:24;100013.34;;;16.07;99.75
18533;BME280;9396;51.510;11.934;2022-09-09T03:17:55;100003.44;;;16.07;99.85
18533;BME280;9396;51.510;11.934;2022-09-09T03:20:22;100008.19;;;16.05;99.72
18533;BME280;9396;51.510;11.934;2022-09-09T03:22:50;100009.59;;;16.01;99.53
18533;BME280;9396;51.510;11.934;2022-09-09T03:25:17;100015.78;;;16.02;99.26
18533;BME280;9396;51.510;11.934;2022-09-09T03:27:44;100013.31;;;16.00;99.06
18533;BME280;9396;51.510;11.934;2022-09-09T03:30:11;100013.31;;;16.00;99.23
18533;BME280;9396;51.510;11.934;2022-09-09T03:32:37;100009.97;;;15.98;99.01
18533;BME280;9396;51.510;11.934;2022-09-09T03:35:05;100006.69;;;15.96;99.22
18533;BME280;9396;51.510;11.934;2022-09-09T03:37:32;100005.66;;;15.97;99.39
18533;BME280;9396;51.510;11.934;2022-09-09T03:40:01;100002.13;;;15.97;99.68
18533;BME280;9396;51.510;11.934;2022-09-09T03:42:27;99998.22;;;15.93;99.64
18533;BME280;9396;51.510;11.934;2022-09-09T03:44:56;100002.09;;;15.90;100.00
18533;BME280;9396;51.510;11.934;2022-09-09T03:47:23;100000.63;;;15.88;100.00
18533;BME280;9396;51.510;11.934;2022-09-09T03:49:49;100004.34;;;15.87;100.00
18533;BME280;9396;51.510;11.934;2022-09-09T03:52:16;100000.03;;;15.86;100.00
18533;BME280;9396;51.510;11.934;2022-09-09T03:54:44;99992.59;;;15.88;100.00
18533;BME280;9396;51.510;11.934;2022-09-09T03:57:12;99989.72;;;15.89;100.00
18533;BME280;9396;51.510;11.934;2022-09-09T03:59:41;99990.53;;;15.90;100.00
18533;BME280;9396;51.510;11.934;2022-09-09T04:02:08;100003.75;;;15.91;100.00
18533;BME280;9396;51.510;11.934;2022-09-09T04:04:35;100003.75;;;15.91;100.00
18533;BME280;9396;51.510;11.934;2022-09-09T04:07:02;99995.53;;;15.93;100.00
18533;BME280;9396;51.510;11.934;2022-09-09T04:09:31;99999.84;;;15.94;100.00
18533;BME280;9396;51.510;11.934;2022-09-09T04:11:57;99985.59;;;15.93;100.00
18533;BME280;9396;51.510;11.934;2022-09-09T04:14:25;99995.53;;;15.93;100.00
18533;BME280;9396;51.510;11.934;2022-09-09T04:16:54;99993.44;;;15.95;100.00
18533;BME280;9396;51.510;11.934;2022-09-09T04:19:22;100004.19;;;15.95;100.00
18533;BME280;9396;51.510;11.934;2022-09-09T04:21:49;100003.19;;;15.96;100.00
18533;BME280;9396;51.510;11.934;2022-09-09T04:24:16;100015.19;;;16.00;100.00
18533;BME280;9396;51.510;11.934;2022-09-09T04:26:43;100013.94;;;16.02;100.00
18533;BME280;9396;51.510;11.934;2022-09-09T04:29:10;100000.16;;;16.05;100.00
18533;BME280;9396;51.510;11.934;2022-09-09T04:31:38;99995.22;;;16.09;100.00
18533;BME280;9396;51.510;11.934;2022-09-09T04:34:07;100010.06;;;16.12;100.00
18533;BME280;9396;51.510;11.934;2022-09-09T04:36:34;100005.53;;;16.12;100.00
18533;BME280;9396;51.510;11.934;2022-09-09T04:39:01;100005.97;;;16.16;100.00
18533;BME280;9396;51.510;11.934;2022-09-09T04:41:28;100003.72;;;16.19;100.00
18533;BME280;9396;51.510;11.934;2022-09-09T04:43:56;100004.97;;;16.23;100.00
18533;BME280;9396;51.510;11.934;2022-09-09T04:46:24;100014.25;;;16.27;100.00
18533;BME280;9396;51.510;11.934;2022-09-09T04:48:52;100014.69;;;16.31;100.00
18533;BME280;9396;51.510;11.934;2022-09-09T04:51:19;100008.94;;;16.34;100.00
18533;BME280;9396;51.510;11.934;2022-09-09T04:53:46;100005.63;;;16.38;100.00
18533;BME280;9396;51.510;11.934;2022-09-09T04:56:16;100003.38;;;16.42;100.00
18533;BME280;9396;51.510;11.934;2022-09-09T04:58:43;100010.41;;;16.43;100.00
18533;BME280;9396;51.510;11.934;2022-09-09T05:01:12;100011.84;;;16.45;100.00
18533;BME280;9396;51.510;11.934;2022-09-09T05:03:39;100018.06;;;16.46;100.00
18533;BME280;9396;51.510;11.934;2022-09-09T05:06:09;100012.53;;;16.47;100.00
18533;BME280;9396;51.510;11.934;2022-09-09T05:08:36;100007.31;;;16.46;100.00
18533;BME280;9396;51.510;11.934;2022-09-09T05:11:03;100015.38;;;16.46;100.00
18533;BME280;9396;51.510;11.934;2022-09-09T05:13:30;100020.56;;;16.47;100.00
18533;BME280;9396;51.510;11.934;2022-09-09T05:15:57;100024.94;;;16.48;100.00
18533;BME280;9396;51.510;11.934;2022-09-09T05:18:24;100023.69;;;16.51;100.00
18533;BME280;9396;51.510;11.934;2022-09-09T05:20:51;100016.06;;;16.54;100.00
18533;BME280;9396;51.510;11.934;2022-09-09T05:23:19;100014.78;;;16.50;100.00
18533;BME280;9396;51.510;11.934;2022-09-09T05:25:55;100019.78;;;16.53;100.00
18533;BME280;9396;51.510;11.934;2022-09-09T05:28:22;100014.84;;;16.57;100.00
18533;BME280;9396;51.510;11.934;2022-09-09T05:30:55;100018.56;;;16.62;100.00
18533;BME280;9396;51.510;11.934;2022-09-09T05:33:23;100030.13;;;16.63;100.00
18533;BME280;9396;51.510;11.934;2022-09-09T05:35:55;100026.00;;;16.67;100.00
18533;BME280;9396;51.510;11.934;2022-09-09T05:38:23;100020.66;;;16.73;100.00
18533;BME280;9396;51.510;11.934;2022-09-09T05:40:51;100011.16;;;16.71;100.00
18533;BME280;9396;51.510;11.934;2022-09-09T05:43:17;100022.31;;;16.74;100.00
18533;BME280;9396;51.510;11.934;2022-09-09T05:45:45;100020.91;;;16.78;100.00
18533;BME280;9396;51.510;11.934;2022-09-09T05:48:12;100011.38;;;16.82;100.00
18533;BME280;9396;51.510;11.934;2022-09-09T05:50:39;100018.44;;;16.90;100.00
18533;BME280;9396;51.510;11.934;2022-09-09T05:53:05;100017.00;;;16.94;99.85
18533;BME280;9396;51.510;11.934;2022-09-09T05:55:33;100020.72;;;16.99;99.60
18533;BME280;9396;51.510;11.934;2022-09-09T05:58:00;100016.56;;;17.03;99.63
18533;BME280;9396;51.510;11.934;2022-09-09T06:00:26;100029.00;;;17.04;99.96
18533;BME280;9396;51.510;11.934;2022-09-09T06:02:56;100031.91;;;17.09;100.00
18533;BME280;9396;51.510;11.934;2022-09-09T06:05:23;100026.09;;;17.12;100.00
18533;BME280;9396;51.510;11.934;2022-09-09T06:07:52;100024.25;;;17.13;99.67
18533;BME280;9396;51.510;11.934;2022-09-09T06:10:20;100039.16;;;17.16;99.98
18533;BME280;9396;51.510;11.934;2022-09-09T06:12:48;100034.41;;;17.18;100.00
18533;BME280;9396;51.510;11.934;2022-09-09T06:15:15;100032.31;;;17.20;98.96
18533;BME280;9396;51.510;11.934;2022-09-09T06:17:42;100040.19;;;17.21;99.00
18533;BME280;9396;51.510;11.934;2022-09-09T06:20:10;100031.94;;;17.23;98.83
18533;BME280;9396;51.510;11.934;2022-09-09T06:22:39;100037.72;;;17.26;98.76
18533;BME280;9396;51.510;11.934;2022-09-09T06:25:07;100029.66;;;17.26;99.18
18533;BME280;9396;51.510;11.934;2022-09-09T06:27:34;100037.09;;;17.18;98.98
18533;BME280;9396;51.510;11.934;2022-09-09T06:30:02;100035.84;;;17.27;98.64
18533;BME280;9396;51.510;11.934;2022-09-09T06:32:29;100030.69;;;17.32;98.45
18533;BME280;9396;51.510;11.934;2022-09-09T06:34:56;100033.16;;;17.33;98.29
18533;BME280;9396;51.510;11.934;2022-09-09T06:37:26;100038.97;;;17.37;98.21
18533;BME280;9396;51.510;11.934;2022-09-09T06:39:53;100028.41;;;17.42;98.18
18533;BME280;9396;51.510;11.934;2022-09-09T06:42:20;100026.13;;;17.45;97.99
18533;BME280;9396;51.510;11.934;2022-09-09T06:44:46;100036.72;;;17.53;98.16
18533;BME280;9396;51.510;11.934;2022-09-09T06:47:14;100041.25;;;17.59;97.43
18533;BME280;9396;51.510;11.934;2022-09-09T06:49:41;100033.19;;;17.66;97.65
18533;BME280;9396;51.510;11.934;2022-09-09T06:52:09;100029.66;;;17.59;97.90
18533;BME280;9396;51.510;11.934;2022-09-09T06:54:35;100026.16;;;17.65;97.80
18533;BME280;9396;51.510;11.934;2022-09-09T06:57:02;100033.38;;;17.77;97.79
18533;BME280;9396;51.510;11.934;2022-09-09T06:59:32;100030.28;;;17.74;97.67
18533;BME280;9396;51.510;11.934;2022-09-09T07:01:58;100026.94;;;17.91;97.29
18533;BME280;9396;51.510;11.934;2022-09-09T07:04:27;100014.06;;;18.00;97.56
18533;BME280;9396;51.510;11.934;2022-09-09T07:06:53;100032.25;;;18.24;95.50
18533;BME280;9396;51.510;11.934;2022-09-09T07:09:20;100022.28;;;18.31;93.75
18533;BME280;9396;51.510;11.934;2022-09-09T07:11:48;100024.03;;;18.63;94.54
18533;BME280;9396;51.510;11.934;2022-09-09T07:14:16;100028.38;;;18.64;93.16
18533;BME280;9396;51.510;11.934;2022-09-09T07:16:43;100030.84;;;18.72;92.25
18533;BME280;9396;51.510;11.934;2022-09-09T07:19:12;100029.94;;;18.85;91.73
18533;BME280;9396;51.510;11.934;2022-09-09T07:21:41;100021.19;;;18.89;91.95
18533;BME280;9396;51.510;11.934;2022-09-09T07:24:08;100034.50;;;18.84;93.23
18533;BME280;9396;51.510;11.934;2022-09-09T07:26:36;100043.44;;;18.78;92.38
18533;BME280;9396;51.510;11.934;2022-09-09T07:29:03;100038.72;;;18.67;93.48
18533;BME280;9396;51.510;11.934;2022-09-09T07:31:31;100039.94;;;18.78;94.36
18533;BME280;9396;51.510;11.934;2022-09-09T07:34:00;99992.22;;;18.78;92.26
18533;BME280;9396;51.510;11.934;2022-09-09T07:36:29;100042.28;;;19.30;90.39
18533;BME280;9396;51.510;11.934;2022-09-09T07:38:59;100032.56;;;20.21;86.13
18533;BME280;9396;51.510;11.934;2022-09-09T07:41:28;100026.88;;;21.06;82.80
18533;BME280;9396;51.510;11.934;2022-09-09T07:43:55;100026.31;;;21.92;81.07
18533;BME280;9396;51.510;11.934;2022-09-09T07:46:25;100024.38;;;22.27;79.14
18533;BME280;9396;51.510;11.934;2022-09-09T07:48:53;100030.25;;;22.87;81.67
18533;BME280;9396;51.510;11.934;2022-09-09T07:51:22;100030.97;;;22.82;78.77
18533;BME280;9396;51.510;11.934;2022-09-09T07:53:52;100032.81;;;22.65;78.27
18533;BME280;9396;51.510;11.934;2022-09-09T07:56:21;100029.53;;;22.63;79.71
18533;BME280;9396;51.510;11.934;2022-09-09T07:58:49;100027.88;;;22.62;79.13
18533;BME280;9396;51.510;11.934;2022-09-09T08:01:17;100037.09;;;22.38;82.00
18533;BME280;9396;51.510;11.934;2022-09-09T08:03:44;100037.50;;;22.18;80.30
18533;BME280;9396;51.510;11.934;2022-09-09T08:06:12;100044.69;;;22.13;80.09
18533;BME280;9396;51.510;11.934;2022-09-09T08:08:39;100039.00;;;22.14;81.06
18533;BME280;9396;51.510;11.934;2022-09-09T08:11:10;100001.13;;;22.03;79.36
18533;BME280;9396;51.510;11.934;2022-09-09T08:13:39;100042.19;;;22.34;78.49
18533;BME280;9396;51.510;11.934;2022-09-09T08:16:07;99970.56;;;22.19;79.23
18533;BME280;9396;51.510;11.934;2022-09-09T08:18:34;100045.53;;;22.76;79.72
18533;BME280;9396;51.510;11.934;2022-09-09T08:21:12;100045.94;;;22.57;79.25
18533;BME280;9396;51.510;11.934;2022-09-09T08:23:39;100044.09;;;22.74;80.98
18533;BME280;9396;51.510;11.934;2022-09-09T08:26:10;100045.88;;;22.80;79.48
18533;BME280;9396;51.510;11.934;2022-09-09T08:28:38;100032.06;;;22.81;76.98
18533;BME280;9396;51.510;11.934;2022-09-09T08:31:10;100035.44;;;22.88;78.64
18533;BME280;9396;51.510;11.934;2022-09-09T08:33:37;100033.00;;;22.75;79.73
18533;BME280;9396;51.510;11.934;2022-09-09T08:36:05;100033.66;;;22.66;79.70
18533;BME280;9396;51.510;11.934;2022-09-09T08:38:33;100035.19;;;22.50;80.83
18533;BME280;9396;51.510;11.934;2022-09-09T08:41:11;100039.91;;;22.43;79.67
18533;BME280;9396;51.510;11.934;2022-09-09T08:43:46;100040.88;;;22.37;80.57
18533;BME280;9396;51.510;11.934;2022-09-09T08:46:17;100057.41;;;22.01;80.76
18533;BME280;9396;51.510;11.934;2022-09-09T08:48:53;100057.63;;;22.11;81.90
18533;BME280;9396;51.510;11.934;2022-09-09T08:51:26;100051.16;;;22.23;80.58
18533;BME280;9396;51.510;11.934;2022-09-09T08:53:54;100054.00;;;22.28;80.73
18533;BME280;9396;51.510;11.934;2022-09-09T08:56:26;100043.72;;;22.30;79.48
18533;BME280;9396;51.510;11.934;2022-09-09T08:58:56;100051.44;;;22.50;82.07
18533;BME280;9396;51.510;11.934;2022-09-09T09:01:41;100047.81;;;22.56;82.58
18533;BME280;9396;51.510;11.934;2022-09-09T09:04:27;100046.75;;;22.57;84.03
18533;BME280;9396;51.510;11.934;2022-09-09T09:07:03;100048.53;;;22.52;83.98
18533;BME280;9396;51.510;11.934;2022-09-09T09:09:40;100054.06;;;22.45;83.69
18533;BME280;9396;51.510;11.934;2022-09-09T09:12:15;100056.31;;;22.37;83.56
18533;BME280;9396;51.510;11.934;2022-09-09T09:14:46;100054.53;;;22.42;84.13
18533;BME280;9396;51.510;11.934;2022-09-09T09:17:14;100051.00;;;22.42;84.23
18533;BME280;9396;51.510;11.934;2022-09-09T09:19:44;100050.56;;;22.33;84.62
18533;BME280;9396;51.510;11.934;2022-09-09T09:22:17;100046.75;;;22.34;84.61
18533;BME280;9396;51.510;11.934;2022-09-09T09:24:50;100062.47;;;22.32;82.74
18533;BME280;9396;51.510;11.934;2022-09-09T09:27:24;100061.88;;;22.30;82.32
18533;BME280;9396;51.510;11.934;2022-09-09T09:29:56;100049.38;;;22.29;84.05
18533;BME280;9396;51.510;11.934;2022-09-09T09:32:26;100059.75;;;22.20;80.73
18533;BME280;9396;51.510;11.934;2022-09-09T09:34:56;100055.53;;;22.13;82.43
18533;BME280;9396;51.510;11.934;2022-09-09T09:37:26;100050.44;;;22.16;82.42
18533;BME280;9396;51.510;11.934;2022-09-09T09:39:54;100041.28;;;22.17;82.68
18533;BME280;9396;51.510;11.934;2022-09-09T09:42:22;100040.09;;;22.25;84.32
18533;BME280;9396;51.510;11.934;2022-09-09T09:44:49;100045.63;;;22.30;82.59
18533;BME280;9396;51.510;11.934;2022-09-09T09:47:18;100045.72;;;22.35;82.93
18533;BME280;9396;51.510;11.934;2022-09-09T09:49:52;100038.28;;;22.30;82.94
18533;BME280;9396;51.510;11.934;2022-09-09T09:52:21;100045.81;;;22.40;83.89
18533;BME280;9396;51.510;11.934;2022-09-09T09:54:49;100042.75;;;22.48;81.98
18533;BME280;9396;51.510;11.934;2022-09-09T09:57:16;100061.94;;;22.47;80.75
18533;BME280;9396;51.510;11.934;2022-09-09T09:59:45;100045.81;;;22.40;79.87
18533;BME280;9396;51.510;11.934;2022-09-09T10:02:18;100059.88;;;22.37;83.21
18533;BME280;9396;51.510;11.934;2022-09-09T10:04:46;100049.84;;;22.26;82.86
18533;BME280;9396;51.510;11.934;2022-09-09T10:07:18;100046.69;;;22.17;82.63
18533;BME280;9396;51.510;11.934;2022-09-09T10:09:47;100052.69;;;22.08;83.02
18533;BME280;9396;51.510;11.934;2022-09-09T10:12:26;100051.66;;;21.97;83.17
18533;BME280;9396;51.510;11.934;2022-09-09T10:15:01;100048.59;;;21.94;84.63
18533;BME280;9396;51.510;11.934;2022-09-09T10:17:38;100049.06;;;21.91;84.88
18533;BME280;9396;51.510;11.934;2022-09-09T10:20:21;100037.28;;;21.97;83.02
18533;BME280;9396;51.510;11.934;2022-09-09T10:23:00;100034.09;;;22.00;82.80
18533;BME280;9396;51.510;11.934;2022-09-09T10:25:40;100039.75;;;21.98;83.26
18533;BME280;9396;51.510;11.934;2022-09-09T10:28:30;100038.34;;;21.96;82.96
18533;BME280;9396;51.510;11.934;2022-09-09T10:31:08;100032.09;;;21.95;84.07
18533;BME280;9396;51.510;11.934;2022-09-09T10:33:50;100017.16;;;21.81;82.48
18533;BME280;9396;51.510;11.934;2022-09-09T10:36:20;100026.94;;;21.82;84.59
18533;BME280;9396;51.510;11.934;2022-09-09T10:38:48;100040.19;;;21.72;82.93
18533;BME280;9396;51.510;11.934;2022-09-09T10:41:23;100043.50;;;21.74;83.54
18533;BME280;9396;51.510;11.934;2022-09-09T10:44:16;100042.91;;;21.61;84.54
18533;BME280;9396;51.510;11.934;2022-09-09T10:46:56;100039.59;;;21.59;83.74
18533;BME280;9396;51.510;11.934;2022-09-09T10:49:52;100039.13;;;21.50;82.96
18533;BME280;9396;51.510;11.934;2022-09-09T10:52:28;100045.22;;;21.34;85.87
18533;BME280;9396;51.510;11.934;2022-09-09T10:54:59;100047.41;;;21.25;87.14
18533;BME280;9396;51.510;11.934;2022-09-09T10:57:29;100048.94;;;21.21;86.35
18533;BME280;9396;51.510;11.934;2022-09-09T11:00:01;100053.53;;;21.21;87.12
18533;BME280;9396;51.510;11.934;2022-09-09T11:02:30;100051.09;;;21.01;84.46
18533;BME280;9396;51.510;11.934;2022-09-09T11:05:01;100043.72;;;21.08;86.54
18533;BME280;9396;51.510;11.934;2022-09-09T11:07:34;100028.69;;;21.12;86.14
18533;BME280;9396;51.510;11.934;2022-09-09T11:10:16;100042.72;;;21.33;86.18
18533;BME280;9396;51.510;11.934;2022-09-09T11:12:47;100016.00;;;21.24;84.26
18533;BME280;9396;51.510;11.934;2022-09-09T11:15:17;100037.69;;;21.48;86.45
18533;BME280;9396;51.510;11.934;2022-09-09T11:17:49;100016.88;;;21.60;83.26
18533;BME280;9396;51.510;11.934;2022-09-09T11:20:19;100012.88;;;21.74;81.86
18533;BME280;9396;51.510;11.934;2022-09-09T11:22:48;100013.50;;;21.87;80.02
18533;BME280;9396;51.510;11.934;2022-09-09T11:25:18;100003.13;;;21.96;79.13
18533;BME280;9396;51.510;11.934;2022-09-09T11:27:58;100001.22;;;22.08;80.53
18533;BME280;9396;51.510;11.934;2022-09-09T11:30:36;99998.97;;;22.16;82.44
18533;BME280;9396;51.510;11.934;2022-09-09T11:36:12;100000.69;;;22.34;76.40
18533;BME280;9396;51.510;11.934;2022-09-09T11:38:44;100000.81;;;22.39;80.19
18533;BME280;9396;51.510;11.934;2022-09-09T11:41:12;100002.44;;;22.40;79.66
18533;BME280;9396;51.510;11.934;2022-09-09T11:43:42;100010.09;;;22.43;81.33
18533;BME280;9396;51.510;11.934;2022-09-09T11:46:10;100015.63;;;22.48;79.76
18533;BME280;9396;51.510;11.934;2022-09-09T11:48:40;100021.63;;;22.50;79.90
18533;BME280;9396;51.510;11.934;2022-09-09T11:51:12;100010.69;;;22.57;78.77
18533;BME280;9396;51.510;11.934;2022-09-09T11:53:50;100014.53;;;22.61;78.90
18533;BME280;9396;51.510;11.934;2022-09-09T11:56:26;100010.44;;;22.58;78.58
18533;BME280;9396;51.510;11.934;2022-09-09T11:58:56;100012.56;;;22.56;80.88
18533;BME280;9396;51.510;11.934;2022-09-09T12:01:29;100006.53;;;22.54;80.52
18533;BME280;9396;51.510;11.934;2022-09-09T12:04:21;99999.03;;;22.45;77.94
18533;BME280;9396;51.510;11.934;2022-09-09T12:06:58;100005.50;;;22.44;77.76
18533;BME280;9396;51.510;11.934;2022-09-09T12:09:31;99997.63;;;22.42;81.06
18533;BME280;9396;51.510;11.934;2022-09-09T12:12:07;99999.16;;;22.38;77.76
18533;BME280;9396;51.510;11.934;2022-09-09T12:14:36;100000.94;;;22.32;79.41
18533;BME280;9396;51.510;11.934;2022-09-09T12:17:17;99998.94;;;22.28;77.46
18533;BME280;9396;51.510;11.934;2022-09-09T12:19:46;99992.84;;;22.21;77.63
18533;BME280;9396;51.510;11.934;2022-09-09T12:22:20;99992.09;;;22.25;77.90
18533;BME280;9396;51.510;11.934;2022-09-09T12:24:55;99982.00;;;22.21;79.01
18533;BME280;9396;51.510;11.934;2022-09-09T12:27:29;99990.59;;;22.18;79.28
18533;BME280;9396;51.510;11.934;2022-09-09T12:30:01;99990.13;;;22.09;79.08
18533;BME280;9396;51.510;11.934;2022-09-09T12:32:29;99986.38;;;22.10;77.12
18533;BME280;9396;51.510;11.934;2022-09-09T12:34:59;99990.47;;;22.13;79.43
18533;BME280;9396;51.510;11.934;2022-09-09T12:37:31;99997.34;;;22.04;77.76
18533;BME280;9396;51.510;11.934;2022-09-09T12:40:00;99983.31;;;21.95;78.80
18533;BME280;9396;51.510;11.934;2022-09-09T12:42:29;99984.50;;;21.99;77.55
18533;BME280;9396;51.510;11.934;2022-09-09T12:44:59;99962.63;;;21.89;80.20
18533;BME280;9396;51.510;11.934;2022-09-09T12:47:36;99989.69;;;22.01;79.69
18533;BME280;9396;51.510;11.934;2022-09-09T12:50:15;99981.94;;;21.93;79.61
18533;BME280;9396;51.510;11.934;2022-09-09T12:52:44;99981.44;;;21.96;79.26
18533;BME280;9396;51.510;11.934;2022-09-09T12:55:17;99981.44;;;21.96;76.92
18533;BME280;9396;51.510;11.934;2022-09-09T12:57:45;99979.56;;;21.96;78.16
18533;BME280;9396;51.510;11.934;2022-09-09T13:00:15;99979.56;;;21.96;77.61
18533;BME280;9396;51.510;11.934;2022-09-09T13:02:48;99987.91;;;21.95;79.65
18533;BME280;9396;51.510;11.934;2022-09-09T13:05:18;99985.94;;;22.02;77.00
18533;BME280;9396;51.510;11.934;2022-09-09T13:07:46;99977.81;;;22.02;77.17
18533;BME280;9396;51.510;11.934;2022-09-09T13:10:15;99986.63;;;22.09;78.78
18533;BME280;9396;51.510;11.934;2022-09-09T13:12:45;99981.91;;;22.16;76.43